Huvudsida
METAR-TAF:

METAR-TAF

Flygplatser :

Caracas, Venezuela

latitud: 10-36N, longitud: 066-59W, höjd: 43 m

Aktuellt väderrapport

Denna rapport gjordes för 58 minuter sedan, klockan 00:02 UTC
Vind 6 kt från ost
Temperatur
Tryck 1013 hPa

METAR: SVMI 260002Z AUTO 08006KT NCD -40/// Q1013

Tid: 21:00 (01:00 UTC)

Väderprognos

Denna rapport gjordes för 3 timmar och 0 minuter sedan, klockan 22:00 UTC
Prognos gäller från 26 kl. 00 UTC till 27 kl. 00 UTC
Vind 2 kt från ost/sydost
Sikt 10 km eller mer
Spridda moln på en höjd av 1600 ft
Blir
från 26 kl. 00 UTC till 26 kl. 04 UTC
Vind 2 kt från ost
Sikt: 9000 m
Brutna moln på en höjd av 1600 ft
Spridda moln på en höjd av 10000 ft
lätt duggregn

TAF: SVMI 252200Z 2600/2700 11002KT 9999 SCT016 TX29/18Z TN23/08Z BECMG 2600/2604 08002KT 9000 -DZ BKN016 SCT100

Aktuella väderrapporter och prognoser från 4000 flygplatser (METAR- och TAF-rapporter).

De tillgängliga stationerna syns som gula och röda prickar på kartan.

För musen över prickarna för att se namnen på stationerna.

Klicka sedan för att få väderrapporter och prognoser.

För att ändra kartan: Klicka på de gröna knapparna med ett svart kors på för att zooma in; den gröna knappen med ett streck på för att zooma ut; eller på de gröna pilarna för angränsande kartor.


METAR-TAF: